createdAt,value
2018-11-02T06:49:13.594Z,98126.56
2018-11-02T06:51:42.712Z,98130.98
2018-11-02T06:54:11.859Z,98146.01
2018-11-02T06:56:40.988Z,98154.31
2018-11-02T06:59:10.211Z,98143.12
2018-11-02T07:01:39.257Z,98143.84
2018-11-02T07:04:08.296Z,98157.88
2018-11-02T07:06:37.300Z,98156.30
2018-11-02T07:09:09.528Z,98156.80
2018-11-02T07:11:38.741Z,98154.14
2018-11-02T07:14:10.692Z,98160.97
2018-11-02T07:16:39.807Z,98156.66
2018-11-02T07:19:09.314Z,98148.70
2018-11-02T07:21:38.420Z,98153.66
2018-11-02T07:24:08.030Z,98155.16
2018-11-02T07:26:37.078Z,98155.80
2018-11-02T07:29:06.826Z,98156.89
2018-11-02T07:31:42.199Z,98149.26
2018-11-02T07:34:11.279Z,98147.94
2018-11-02T07:36:40.330Z,98144.77
2018-11-02T07:39:27.322Z,98149.40
2018-11-02T07:41:56.689Z,98154.53
2018-11-02T07:44:25.887Z,98150.05
2018-11-02T07:46:56.386Z,98158.98
2018-11-02T07:49:25.795Z,98173.77
2018-11-02T07:51:54.788Z,98176.84
2018-11-02T07:54:24.123Z,98170.19
2018-11-02T07:56:53.168Z,98181.13
2018-11-02T07:59:22.565Z,98186.28
2018-11-02T08:01:51.803Z,98183.97
2018-11-02T08:04:20.561Z,98181.59
2018-11-02T08:06:49.629Z,98193.13
2018-11-02T08:09:18.553Z,98201.92
2018-11-02T08:11:47.371Z,98198.63
2018-11-02T08:14:16.320Z,98184.31
2018-11-02T08:16:45.289Z,98189.01
2018-11-02T08:19:14.227Z,98181.47
2018-11-02T08:21:43.117Z,98174.21
2018-11-02T08:24:12.069Z,98174.26
2018-11-02T08:26:41.388Z,98171.52
2018-11-02T08:29:10.630Z,98175.87
2018-11-02T08:31:39.820Z,98172.99
2018-11-02T08:34:08.858Z,98168.98
2018-11-02T08:36:37.823Z,98162.27
2018-11-02T08:39:09.485Z,98151.71
2018-11-02T08:41:38.429Z,98153.36
2018-11-02T08:44:07.842Z,98169.55
2018-11-02T08:46:36.968Z,98173.72
2018-11-02T08:49:05.902Z,98178.55
2018-11-02T08:51:34.884Z,98172.63
2018-11-02T08:54:03.846Z,98178.84
2018-11-02T08:56:32.807Z,98177.07
2018-11-02T08:59:01.836Z,98180.87
2018-11-02T09:01:31.067Z,98170.57
2018-11-02T09:04:00.019Z,98169.81
2018-11-02T09:06:29.008Z,98168.27
2018-11-02T09:08:58.092Z,98168.69
2018-11-02T09:11:27.211Z,98170.63
2018-11-02T09:13:56.433Z,98167.35
2018-11-02T09:16:25.683Z,98163.89
2018-11-02T09:18:54.825Z,98158.73
2018-11-02T09:21:23.920Z,98160.77
2018-11-02T09:23:53.157Z,98157.42
2018-11-02T09:26:22.595Z,98162.67
2018-11-02T09:28:52.089Z,98162.16
2018-11-02T09:31:25.444Z,98166.80
2018-11-02T09:33:55.674Z,98160.38
2018-11-02T09:36:24.872Z,98152.94
2018-11-02T09:38:54.146Z,98168.70
2018-11-02T09:41:23.483Z,98164.03
2018-11-02T09:43:52.650Z,98164.37
2018-11-02T09:46:23.080Z,98156.22
2018-11-02T09:48:52.228Z,98154.05
2018-11-02T09:51:21.471Z,98163.81
2018-11-02T09:53:50.613Z,98158.14
2018-11-02T09:56:19.716Z,98153.44
2018-11-02T09:58:48.992Z,98145.16
2018-11-02T10:01:18.204Z,98142.80
2018-11-02T10:03:47.356Z,98140.38
2018-11-02T10:06:16.625Z,98137.91
2018-11-02T10:08:45.789Z,98138.94
2018-11-02T10:11:14.903Z,98125.77
2018-11-02T10:13:44.093Z,98131.58
2018-11-02T10:16:13.477Z,98123.70
2018-11-02T10:18:42.734Z,98120.20
2018-11-02T10:21:11.897Z,98125.61
2018-11-02T10:23:41.048Z,98115.42
2018-11-02T10:26:10.266Z,98115.45
2018-11-02T10:28:39.609Z,98104.55
2018-11-02T10:31:08.907Z,98094.92
2018-11-02T10:33:38.070Z,98086.23
2018-11-02T10:36:07.367Z,98071.16
2018-11-02T10:38:36.658Z,98080.95
2018-11-02T10:41:06.798Z,98072.79
2018-11-02T10:43:36.429Z,98071.44
2018-11-02T10:46:05.784Z,98081.76
2018-11-02T10:48:34.976Z,98077.78
2018-11-02T10:51:05.082Z,98071.91
2018-11-02T10:53:34.219Z,98072.45
2018-11-02T10:56:03.716Z,98081.09
2018-11-02T10:58:33.070Z,98084.66
2018-11-02T11:01:07.826Z,98085.47
2018-11-02T11:03:36.900Z,98086.31
2018-11-02T11:06:06.240Z,98089.87
2018-11-02T11:08:35.395Z,98095.00
2018-11-02T11:11:04.670Z,98087.20
2018-11-02T11:13:33.918Z,98078.78
2018-11-02T11:16:02.980Z,98080.95
2018-11-02T11:18:32.178Z,98066.34
2018-11-02T11:21:01.537Z,98073.91
2018-11-02T11:23:30.643Z,98067.98
2018-11-02T11:25:59.716Z,98076.82
2018-11-02T11:28:28.850Z,98079.17
2018-11-02T11:30:58.380Z,98068.77
2018-11-02T11:33:27.521Z,98058.25
2018-11-02T11:35:56.616Z,98053.11
2018-11-02T11:38:25.783Z,98056.09
2018-11-02T11:40:54.993Z,98060.04
2018-11-02T11:43:24.112Z,98074.41
2018-11-02T11:45:53.237Z,98064.89
2018-11-02T11:48:22.603Z,98059.20
2018-11-02T11:50:51.782Z,98048.08
2018-11-02T11:53:20.925Z,98045.36
2018-11-02T11:55:50.800Z,98044.59
2018-11-02T11:58:19.898Z,98037.21
2018-11-02T12:00:49.024Z,98039.39
2018-11-02T12:03:18.156Z,98040.09
2018-11-02T12:05:47.367Z,98041.83
2018-11-02T12:08:16.483Z,98040.38
2018-11-02T12:10:45.687Z,98047.57
2018-11-02T12:13:14.929Z,98051.88
2018-11-02T12:15:44.132Z,98048.79
2018-11-02T12:18:13.410Z,98053.77
2018-11-02T12:20:42.672Z,98056.03
2018-11-02T12:23:11.846Z,98056.13
2018-11-02T12:25:40.945Z,98050.66
2018-11-02T12:28:10.110Z,98051.72
2018-11-02T12:30:39.211Z,98049.30
2018-11-02T12:33:08.397Z,98046.48
2018-11-02T12:35:37.431Z,98047.94
2018-11-02T12:38:06.610Z,98034.81
2018-11-02T12:40:35.677Z,98042.69
2018-11-02T12:43:05.523Z,98046.73
2018-11-02T12:45:34.642Z,98045.21
2018-11-02T12:48:03.888Z,98039.59
2018-11-02T12:50:32.966Z,98037.70
2018-11-02T12:53:02.087Z,98041.84
2018-11-02T12:55:31.177Z,98034.45
2018-11-02T12:58:00.260Z,98035.88
2018-11-02T13:00:29.437Z,98032.59
2018-11-02T13:02:58.608Z,98031.73
2018-11-02T13:05:27.770Z,98021.98
2018-11-02T13:07:57.031Z,98030.52
2018-11-02T13:10:26.220Z,98028.97
2018-11-02T13:12:55.409Z,98025.43
2018-11-02T13:15:24.858Z,98022.17
2018-11-02T13:17:54.083Z,98018.61
2018-11-02T13:20:23.228Z,98021.78
2018-11-02T13:22:52.412Z,98021.66
2018-11-02T13:25:21.969Z,98019.22
2018-11-02T13:27:51.700Z,98033.39
2018-11-02T13:30:21.003Z,98036.34
2018-11-02T13:32:50.079Z,98031.47
2018-11-02T13:35:19.767Z,98027.73
2018-11-02T13:37:49.474Z,98025.02
2018-11-02T13:40:18.916Z,98031.59
2018-11-02T13:42:48.141Z,98027.57
2018-11-02T13:45:17.989Z,98033.06
2018-11-02T13:47:47.147Z,98035.25
2018-11-02T13:50:16.277Z,98038.35
2018-11-02T13:52:45.474Z,98045.80
2018-11-02T13:55:14.626Z,98041.94
2018-11-02T13:57:43.739Z,98043.59
2018-11-02T14:00:14.601Z,98046.16
2018-11-02T14:02:43.792Z,98039.78
2018-11-02T14:05:14.133Z,98036.77
2018-11-02T14:07:43.263Z,98036.20
2018-11-02T14:10:13.023Z,98046.16
2018-11-02T14:12:43.063Z,98038.96
2018-11-02T14:15:13.721Z,98047.19
2018-11-02T14:17:43.166Z,98037.71
2018-11-02T14:20:13.172Z,98041.20
2018-11-02T14:22:42.314Z,98042.25
2018-11-02T14:25:12.847Z,98045.84
2018-11-02T14:27:41.979Z,98044.39
2018-11-02T14:30:15.995Z,98046.40
2018-11-02T14:32:45.984Z,98045.23
2018-11-02T14:35:15.081Z,98040.70
2018-11-02T14:37:44.245Z,98039.78
2018-11-02T14:40:13.447Z,98048.31
2018-11-02T14:42:42.768Z,98045.73
2018-11-02T14:45:14.633Z,98055.69
2018-11-02T14:47:44.671Z,98054.95
2018-11-02T14:50:13.829Z,98063.03
2018-11-02T14:52:42.893Z,98063.62
2018-11-02T14:55:12.091Z,98066.01
2018-11-02T14:57:41.171Z,98064.48
2018-11-02T15:00:11.543Z,98058.59
2018-11-02T15:02:41.241Z,98060.81
2018-11-02T15:05:11.911Z,98055.92
2018-11-02T15:07:42.862Z,98055.61
2018-11-02T15:10:12.047Z,98058.63
2018-11-02T15:12:41.173Z,98059.94
2018-11-02T15:15:10.389Z,98061.64
2018-11-02T15:17:39.841Z,98057.64
2018-11-02T15:20:11.925Z,98060.66
2018-11-02T15:22:41.072Z,98058.75
2018-11-02T15:25:10.494Z,98060.64
2018-11-02T15:27:39.959Z,98057.28
2018-11-02T15:30:11.598Z,98056.30
2018-11-02T15:32:41.279Z,98059.26
2018-11-02T15:35:11.282Z,98062.88
2018-11-02T15:37:40.883Z,98064.05
2018-11-02T15:40:11.235Z,98080.09
2018-11-02T15:42:40.611Z,98072.84
2018-11-02T15:45:12.894Z,98072.47
2018-11-02T15:47:42.538Z,98073.45
2018-11-02T15:50:11.792Z,98072.87
2018-11-02T15:52:41.045Z,98078.16
2018-11-02T15:55:11.236Z,98079.28
2018-11-02T15:57:40.336Z,98088.27
2018-11-02T16:00:14.942Z,98083.94
2018-11-02T16:02:45.296Z,98091.75
2018-11-02T16:05:14.424Z,98094.69
2018-11-02T16:07:43.504Z,98089.05
2018-11-02T16:10:12.847Z,98083.95
2018-11-02T16:12:42.768Z,98090.13
2018-11-02T16:15:12.158Z,98091.51
2018-11-02T16:17:41.319Z,98087.25
2018-11-02T16:20:13.500Z,98098.20
2018-11-02T16:22:43.038Z,98085.77
2018-11-02T16:25:12.927Z,98095.05
2018-11-02T16:27:42.759Z,98099.66
2018-11-02T16:30:12.303Z,98099.52
2018-11-02T16:32:41.235Z,98093.82
2018-11-02T16:35:11.073Z,98105.25
2018-11-02T16:37:40.195Z,98103.98
2018-11-02T16:40:13.208Z,98106.89
2018-11-02T16:42:43.142Z,98095.87
2018-11-02T16:45:13.112Z,98093.68
2018-11-02T16:47:42.931Z,98102.33
2018-11-02T16:50:13.125Z,98099.43
2018-11-02T16:52:42.732Z,98093.95
2018-11-02T16:55:11.838Z,98088.81
2018-11-02T16:57:41.132Z,98093.94
2018-11-02T17:00:15.753Z,98094.41
2018-11-02T17:02:46.003Z,98104.03
2018-11-02T17:05:16.235Z,98099.77
2018-11-02T17:07:45.312Z,98101.71
2018-11-02T17:10:15.347Z,98108.80
2018-11-02T17:12:44.821Z,98109.88
2018-11-02T17:15:14.275Z,98115.11
2018-11-02T17:17:43.556Z,98113.77
2018-11-02T17:20:14.279Z,98112.80
2018-11-02T17:22:43.491Z,98117.42
2018-11-02T17:25:13.223Z,98121.20
2018-11-02T17:27:42.476Z,98118.27
2018-11-02T17:30:15.590Z,98122.05
2018-11-02T17:32:44.736Z,98115.23
2018-11-02T17:35:13.991Z,98120.09
2018-11-02T17:37:44.002Z,98128.50
2018-11-02T17:40:14.452Z,98125.23
2018-11-02T17:42:44.123Z,98125.94
2018-11-02T17:45:13.334Z,98126.93
2018-11-02T17:47:42.867Z,98133.73
2018-11-02T17:50:14.175Z,98135.79
2018-11-02T17:52:43.785Z,98136.53
2018-11-02T17:55:13.810Z,98142.63
2018-11-02T17:57:43.325Z,98138.12
2018-11-02T18:00:13.521Z,98146.50
2018-11-02T18:02:42.929Z,98141.11
2018-11-02T18:05:14.408Z,98138.44
2018-11-02T18:07:43.772Z,98136.39
2018-11-02T18:10:18.931Z,98130.33
2018-11-02T18:12:48.114Z,98128.59
2018-11-02T18:15:18.270Z,98136.39
2018-11-02T18:17:48.287Z,98132.27
2018-11-02T18:20:17.436Z,98123.98
2018-11-02T18:22:46.653Z,98131.53
2018-11-02T18:25:16.959Z,98128.52
2018-11-02T18:27:46.366Z,98121.20
2018-11-02T18:30:16.496Z,98124.48
2018-11-02T18:32:46.756Z,98130.81
2018-11-02T18:35:16.052Z,98131.89
2018-11-02T18:37:45.099Z,98135.05
2018-11-02T18:40:14.198Z,98128.22
2018-11-02T18:42:44.053Z,98128.17
2018-11-02T18:45:14.663Z,98123.86
2018-11-02T18:47:46.139Z,98124.70
2018-11-02T18:50:17.081Z,98127.59
2018-11-02T18:52:46.908Z,98130.41
2018-11-02T18:55:17.034Z,98125.17
2018-11-02T18:57:46.239Z,98122.02
2018-11-02T19:00:16.515Z,98124.33
2018-11-02T19:02:47.831Z,98122.19
2018-11-02T19:05:18.095Z,98125.25
2018-11-02T19:07:47.223Z,98129.85
2018-11-02T19:10:17.048Z,98129.47
2018-11-02T19:12:46.099Z,98124.97
2018-11-02T19:15:17.546Z,98131.78
2018-11-02T19:17:46.738Z,98130.59
2018-11-02T19:20:16.210Z,98134.57
2018-11-02T19:22:45.238Z,98133.97
2018-11-02T19:25:15.735Z,98124.00
2018-11-02T19:27:45.659Z,98125.57
2018-11-02T19:30:15.220Z,98135.94
2018-11-02T19:32:44.494Z,98137.91
2018-11-02T19:35:14.253Z,98138.19
2018-11-02T19:37:43.542Z,98133.00
2018-11-02T19:40:14.044Z,98137.06
2018-11-02T19:42:43.328Z,98128.75
2018-11-02T19:45:12.759Z,98128.32
2018-11-02T19:47:47.463Z,98137.16
2018-11-02T19:50:17.577Z,98139.00
2018-11-02T19:52:46.742Z,98143.28
2018-11-02T19:55:15.896Z,98150.02
2018-11-02T19:57:45.034Z,98152.16
2018-11-02T20:00:15.633Z,98155.93
2018-11-02T20:02:44.685Z,98150.31
2018-11-02T20:05:15.971Z,98153.12
2018-11-02T20:07:45.155Z,98152.47
2018-11-02T20:10:15.231Z,98146.03
2018-11-02T20:12:45.759Z,98150.91
2018-11-02T20:15:15.356Z,98151.45
2018-11-02T20:17:44.511Z,98156.78
2018-11-02T20:20:14.630Z,98150.24
2018-11-02T20:22:43.787Z,98151.77
2018-11-02T20:25:14.483Z,98157.44
2018-11-02T20:27:43.747Z,98151.50
2018-11-02T20:30:17.847Z,98152.96
2018-11-02T20:32:48.093Z,98150.44
2018-11-02T20:35:17.269Z,98155.77
2018-11-02T20:37:46.420Z,98161.87
2018-11-02T20:40:17.256Z,98168.44
2018-11-02T20:42:46.547Z,98166.64
2018-11-02T20:45:16.243Z,98167.62
2018-11-02T20:47:48.553Z,98166.16
2018-11-02T20:50:17.771Z,98165.21
2018-11-02T20:52:46.990Z,98163.16
2018-11-02T20:55:16.618Z,98161.11
2018-11-02T20:57:45.696Z,98163.16
2018-11-02T21:00:17.331Z,98169.48
2018-11-02T21:02:46.512Z,98173.11
2018-11-02T21:05:17.417Z,98173.69
2018-11-02T21:07:46.967Z,98168.73
2018-11-02T21:10:17.354Z,98172.69
2018-11-02T21:12:46.668Z,98175.35
2018-11-02T21:15:17.239Z,98176.30
2018-11-02T21:17:46.517Z,98178.44
2018-11-02T21:20:18.880Z,98181.20
2018-11-02T21:22:48.016Z,98191.40
2018-11-02T21:25:17.160Z,98179.30
2018-11-02T21:27:46.740Z,98178.50
2018-11-02T21:30:17.907Z,98177.64
2018-11-02T21:32:47.791Z,98180.03
2018-11-02T21:35:17.673Z,98184.78
2018-11-02T21:37:47.556Z,98185.73
2018-11-02T21:40:18.111Z,98197.02
2018-11-02T21:42:47.370Z,98187.20
2018-11-02T21:45:18.124Z,98179.07
2018-11-02T21:47:47.401Z,98181.27
2018-11-02T21:50:16.787Z,98185.55
2018-11-02T21:52:45.923Z,98185.31
2018-11-02T21:55:15.114Z,98183.98
2018-11-02T21:57:44.242Z,98175.63
2018-11-02T22:00:18.294Z,98179.36
2018-11-02T22:02:47.879Z,98183.45
2018-11-02T22:05:17.115Z,98180.16
2018-11-02T22:07:47.536Z,98174.83
2018-11-02T22:10:17.154Z,98185.36
2018-11-02T22:12:46.924Z,98182.88
2018-11-02T22:15:16.816Z,98182.50
2018-11-02T22:17:45.955Z,98185.92
2018-11-02T22:20:15.576Z,98189.55
2018-11-02T22:22:44.775Z,98183.35
2018-11-02T22:25:14.695Z,98183.45
2018-11-02T22:27:43.847Z,98181.74
2018-11-02T22:30:15.041Z,98182.06
2018-11-02T22:32:44.158Z,98184.73
2018-11-02T22:35:13.987Z,98178.73
2018-11-02T22:37:44.052Z,98179.50
2018-11-02T22:40:13.748Z,98184.26
2018-11-02T22:42:43.252Z,98185.02
2018-11-02T22:45:13.318Z,98191.30
2018-11-02T22:47:46.944Z,98194.70
2018-11-02T22:50:16.053Z,98197.11
2018-11-02T22:52:46.016Z,98192.25
2018-11-02T22:55:15.973Z,98196.67
2018-11-02T22:57:45.209Z,98196.02
2018-11-02T23:00:16.679Z,98202.87
2018-11-02T23:02:46.720Z,98197.78
2018-11-02T23:05:15.938Z,98199.30
2018-11-02T23:07:46.231Z,98197.02
2018-11-02T23:10:15.506Z,98200.41
2018-11-02T23:12:44.678Z,98201.55
2018-11-02T23:15:13.877Z,98197.21
2018-11-02T23:17:43.096Z,98207.22
2018-11-02T23:20:13.775Z,98206.55
2018-11-02T23:22:42.842Z,98198.39
2018-11-02T23:25:12.466Z,98201.16
2018-11-02T23:27:43.280Z,98208.55
2018-11-02T23:30:12.579Z,98208.83
2018-11-02T23:32:41.809Z,98203.30
2018-11-02T23:35:10.974Z,98198.92
2018-11-02T23:37:40.253Z,98194.55
2018-11-02T23:40:10.929Z,98205.02
2018-11-02T23:42:40.210Z,98197.36
2018-11-02T23:45:10.455Z,98193.16
2018-11-02T23:47:43.953Z,98202.02
2018-11-02T23:50:13.071Z,98206.98
2018-11-02T23:52:42.275Z,98208.68
2018-11-02T23:55:11.495Z,98212.30
2018-11-02T23:57:41.291Z,98204.78
